sensor_id;sensor_type;location;lat;lon;timestamp;pressure;altitude;pressure_sealevel;temperature;humidity
70916;BME280;58557;50.982;-3.222;2023-01-15T00:00:52;99562.21;;;4.57;67.83
70916;BME280;58557;50.982;-3.222;2023-01-15T00:03:18;99554.85;;;3.18;68.76
70916;BME280;58557;50.982;-3.222;2023-01-15T00:05:43;99555.05;;;4.28;68.10
70916;BME280;58557;50.982;-3.222;2023-01-15T00:08:09;99557.45;;;4.35;66.63
70916;BME280;58557;50.982;-3.222;2023-01-15T00:10:34;99550.23;;;4.22;67.14
70916;BME280;58557;50.982;-3.222;2023-01-15T00:12:59;99551.04;;;3.44;70.36
70916;BME280;58557;50.982;-3.222;2023-01-15T00:15:24;99550.64;;;4.16;68.00
70916;BME280;58557;50.982;-3.222;2023-01-15T00:17:49;99559.63;;;4.25;68.99
70916;BME280;58557;50.982;-3.222;2023-01-15T00:20:15;99553.85;;;3.63;69.06
70916;BME280;58557;50.982;-3.222;2023-01-15T00:22:40;99563.30;;;3.77;69.89
70916;BME280;58557;50.982;-3.222;2023-01-15T00:25:06;99555.01;;;2.77;74.96
70916;BME280;58557;50.982;-3.222;2023-01-15T00:27:31;99553.73;;;3.68;71.74
70916;BME280;58557;50.982;-3.222;2023-01-15T00:29:56;99551.49;;;2.80;73.26
70916;BME280;58557;50.982;-3.222;2023-01-15T00:32:21;99545.94;;;3.32;69.88
70916;BME280;58557;50.982;-3.222;2023-01-15T00:34:46;99543.97;;;3.37;70.87
70916;BME280;58557;50.982;-3.222;2023-01-15T00:37:12;99548.15;;;4.10;68.67
70916;BME280;58557;50.982;-3.222;2023-01-15T00:39:37;99540.74;;;3.73;69.81
70916;BME280;58557;50.982;-3.222;2023-01-15T00:42:02;99537.54;;;3.97;67.71
70916;BME280;58557;50.982;-3.222;2023-01-15T00:44:27;99534.24;;;3.88;70.06
70916;BME280;58557;50.982;-3.222;2023-01-15T00:46:53;99539.53;;;4.40;68.35
70916;BME280;58557;50.982;-3.222;2023-01-15T00:49:18;99542.45;;;3.74;70.51
70916;BME280;58557;50.982;-3.222;2023-01-15T00:51:43;99551.68;;;2.70;74.05
70916;BME280;58557;50.982;-3.222;2023-01-15T00:54:08;99545.07;;;2.41;76.27
70916;BME280;58557;50.982;-3.222;2023-01-15T00:56:34;99537.67;;;2.48;76.32
70916;BME280;58557;50.982;-3.222;2023-01-15T00:59:00;99527.67;;;2.50;76.51
70916;BME280;58557;50.982;-3.222;2023-01-15T01:01:24;99532.83;;;1.90;78.07
70916;BME280;58557;50.982;-3.222;2023-01-15T01:03:49;99527.72;;;2.33;76.02
70916;BME280;58557;50.982;-3.222;2023-01-15T01:06:15;99518.32;;;1.96;76.39
70916;BME280;58557;50.982;-3.222;2023-01-15T01:08:39;99524.93;;;1.40;79.87
70916;BME280;58557;50.982;-3.222;2023-01-15T01:11:07;99518.71;;;2.53;75.58
70916;BME280;58557;50.982;-3.222;2023-01-15T01:13:32;99524.34;;;2.47;74.90
70916;BME280;58557;50.982;-3.222;2023-01-15T01:15:56;99521.75;;;1.59;76.40
70916;BME280;58557;50.982;-3.222;2023-01-15T01:18:21;99517.83;;;1.63;76.13
70916;BME280;58557;50.982;-3.222;2023-01-15T01:20:46;99518.87;;;2.46;74.82
70916;BME280;58557;50.982;-3.222;2023-01-15T01:23:11;99533.02;;;1.97;75.48
70916;BME280;58557;50.982;-3.222;2023-01-15T01:25:37;99534.67;;;2.04;76.28
70916;BME280;58557;50.982;-3.222;2023-01-15T01:28:02;99538.10;;;3.02;72.48
70916;BME280;58557;50.982;-3.222;2023-01-15T01:30:27;99546.67;;;3.55;71.56
70916;BME280;58557;50.982;-3.222;2023-01-15T01:32:53;99545.27;;;3.77;69.16
70916;BME280;58557;50.982;-3.222;2023-01-15T01:35:18;99529.13;;;2.28;73.00
70916;BME280;58557;50.982;-3.222;2023-01-15T01:37:48;99534.31;;;2.02;74.23
70916;BME280;58557;50.982;-3.222;2023-01-15T01:40:09;99532.25;;;2.27;74.78
70916;BME280;58557;50.982;-3.222;2023-01-15T01:42:34;99531.35;;;2.22;72.85
70916;BME280;58557;50.982;-3.222;2023-01-15T01:45:05;99534.25;;;2.35;73.94
70916;BME280;58557;50.982;-3.222;2023-01-15T01:47:25;99527.77;;;2.28;73.89
70916;BME280;58557;50.982;-3.222;2023-01-15T01:49:52;99517.05;;;3.53;68.99
70916;BME280;58557;50.982;-3.222;2023-01-15T01:52:18;99515.50;;;3.96;67.39
70916;BME280;58557;50.982;-3.222;2023-01-15T01:54:40;99519.61;;;4.04;68.15
70916;BME280;58557;50.982;-3.222;2023-01-15T01:57:06;99516.28;;;3.93;68.67
70916;BME280;58557;50.982;-3.222;2023-01-15T01:59:30;99522.29;;;3.99;68.36
70916;BME280;58557;50.982;-3.222;2023-01-15T02:01:55;99528.52;;;3.11;70.77
70916;BME280;58557;50.982;-3.222;2023-01-15T02:04:21;99518.88;;;2.79;72.28
70916;BME280;58557;50.982;-3.222;2023-01-15T02:06:46;99499.05;;;2.20;73.21
70916;BME280;58557;50.982;-3.222;2023-01-15T02:09:11;99492.57;;;2.97;71.74
70916;BME280;58557;50.982;-3.222;2023-01-15T02:11:36;99496.34;;;3.11;70.63
70916;BME280;58557;50.982;-3.222;2023-01-15T02:14:06;99496.26;;;3.44;69.29
70916;BME280;58557;50.982;-3.222;2023-01-15T02:16:32;99503.10;;;3.30;70.25
70916;BME280;58557;50.982;-3.222;2023-01-15T02:18:57;99498.23;;;2.92;71.21
70916;BME280;58557;50.982;-3.222;2023-01-15T02:21:23;99497.04;;;2.12;73.55
70916;BME280;58557;50.982;-3.222;2023-01-15T02:26:26;99506.45;;;2.62;73.02
70916;BME280;58557;50.982;-3.222;2023-01-15T02:28:36;99524.76;;;3.27;72.23
70916;BME280;58557;50.982;-3.222;2023-01-15T02:31:03;99536.11;;;2.41;74.22
70916;BME280;58557;50.982;-3.222;2023-01-15T02:33:26;99538.11;;;3.57;71.92
70916;BME280;58557;50.982;-3.222;2023-01-15T02:35:53;99553.20;;;2.78;72.63
70916;BME280;58557;50.982;-3.222;2023-01-15T02:38:19;99560.17;;;3.03;72.30
70916;BME280;58557;50.982;-3.222;2023-01-15T02:40:40;99581.56;;;3.53;71.63
70916;BME280;58557;50.982;-3.222;2023-01-15T02:43:06;99583.43;;;3.15;71.36
70916;BME280;58557;50.982;-3.222;2023-01-15T02:45:35;99575.19;;;3.29;74.56
70916;BME280;58557;50.982;-3.222;2023-01-15T02:47:59;99563.13;;;2.34;79.34
70916;BME280;58557;50.982;-3.222;2023-01-15T02:50:26;99552.49;;;2.29;79.19
70916;BME280;58557;50.982;-3.222;2023-01-15T02:52:48;99540.64;;;2.13;79.99
70916;BME280;58557;50.982;-3.222;2023-01-15T02:55:15;99530.82;;;1.95;82.87
70916;BME280;58557;50.982;-3.222;2023-01-15T02:57:37;99509.78;;;2.40;79.27
70916;BME280;58557;50.982;-3.222;2023-01-15T03:00:05;99498.64;;;2.43;80.30
70916;BME280;58557;50.982;-3.222;2023-01-15T03:02:30;99492.73;;;2.83;77.49
70916;BME280;58557;50.982;-3.222;2023-01-15T03:04:56;99478.14;;;2.89;76.47
70916;BME280;58557;50.982;-3.222;2023-01-15T03:07:20;99480.40;;;2.89;76.54
70916;BME280;58557;50.982;-3.222;2023-01-15T03:09:42;99494.31;;;2.45;78.84
70916;BME280;58557;50.982;-3.222;2023-01-15T03:12:11;99509.75;;;1.92;79.44
70916;BME280;58557;50.982;-3.222;2023-01-15T03:14:36;99513.14;;;2.85;76.57
70916;BME280;58557;50.982;-3.222;2023-01-15T03:17:00;99515.95;;;2.12;79.55
70916;BME280;58557;50.982;-3.222;2023-01-15T03:19:26;99507.08;;;2.63;77.03
70916;BME280;58557;50.982;-3.222;2023-01-15T03:21:53;99497.28;;;3.03;76.03
70916;BME280;58557;50.982;-3.222;2023-01-15T03:24:18;99494.14;;;3.56;74.45
70916;BME280;58557;50.982;-3.222;2023-01-15T03:26:39;99487.10;;;2.18;76.49
70916;BME280;58557;50.982;-3.222;2023-01-15T03:29:05;99477.39;;;2.88;74.66
70916;BME280;58557;50.982;-3.222;2023-01-15T03:31:29;99462.70;;;2.66;74.75
70916;BME280;58557;50.982;-3.222;2023-01-15T03:33:54;99449.66;;;2.42;76.52
70916;BME280;58557;50.982;-3.222;2023-01-15T03:36:19;99456.53;;;2.43;75.95
70916;BME280;58557;50.982;-3.222;2023-01-15T03:38:44;99453.56;;;2.50;74.72
70916;BME280;58557;50.982;-3.222;2023-01-15T03:41:14;99477.08;;;2.32;76.55
70916;BME280;58557;50.982;-3.222;2023-01-15T03:43:43;99485.85;;;1.86;79.09
70916;BME280;58557;50.982;-3.222;2023-01-15T03:46:04;99482.84;;;2.07;80.37
70916;BME280;58557;50.982;-3.222;2023-01-15T03:48:29;99470.49;;;1.29;84.28
70916;BME280;58557;50.982;-3.222;2023-01-15T03:50:54;99464.25;;;1.90;81.62
70916;BME280;58557;50.982;-3.222;2023-01-15T03:53:19;99447.22;;;1.65;81.67
70916;BME280;58557;50.982;-3.222;2023-01-15T03:55:44;99443.78;;;1.20;84.52
70916;BME280;58557;50.982;-3.222;2023-01-15T03:58:11;99451.16;;;2.00;80.19
70916;BME280;58557;50.982;-3.222;2023-01-15T04:00:35;99455.13;;;2.62;78.63
70916;BME280;58557;50.982;-3.222;2023-01-15T04:02:57;99443.35;;;2.38;78.05
70916;BME280;58557;50.982;-3.222;2023-01-15T04:05:22;99449.64;;;1.64;80.18
70916;BME280;58557;50.982;-3.222;2023-01-15T04:07:47;99436.81;;;2.71;76.79
70916;BME280;58557;50.982;-3.222;2023-01-15T04:10:12;99446.31;;;2.65;78.03
70916;BME280;58557;50.982;-3.222;2023-01-15T04:12:37;99447.05;;;2.58;78.30
70916;BME280;58557;50.982;-3.222;2023-01-15T04:15:02;99448.71;;;3.25;76.09
70916;BME280;58557;50.982;-3.222;2023-01-15T04:17:27;99445.04;;;2.61;77.84
70916;BME280;58557;50.982;-3.222;2023-01-15T04:19:53;99441.06;;;3.16;76.15
70916;BME280;58557;50.982;-3.222;2023-01-15T04:22:18;99435.92;;;2.74;77.42
70916;BME280;58557;50.982;-3.222;2023-01-15T04:24:43;99429.60;;;2.92;78.17
70916;BME280;58557;50.982;-3.222;2023-01-15T04:27:08;99418.80;;;2.50;80.39
70916;BME280;58557;50.982;-3.222;2023-01-15T04:29:34;99420.98;;;3.46;77.91
70916;BME280;58557;50.982;-3.222;2023-01-15T04:31:59;99424.44;;;3.96;74.76
70916;BME280;58557;50.982;-3.222;2023-01-15T04:34:24;99414.09;;;3.93;75.31
70916;BME280;58557;50.982;-3.222;2023-01-15T04:36:49;99416.67;;;3.64;75.15
70916;BME280;58557;50.982;-3.222;2023-01-15T04:39:14;99422.45;;;3.66;76.97
70916;BME280;58557;50.982;-3.222;2023-01-15T04:41:39;99417.86;;;4.57;74.21
70916;BME280;58557;50.982;-3.222;2023-01-15T04:44:04;99425.35;;;3.54;75.72
70916;BME280;58557;50.982;-3.222;2023-01-15T04:46:30;99421.82;;;3.22;77.51
70916;BME280;58557;50.982;-3.222;2023-01-15T04:48:55;99415.30;;;3.56;76.81
70916;BME280;58557;50.982;-3.222;2023-01-15T04:51:20;99404.49;;;2.93;78.23
70916;BME280;58557;50.982;-3.222;2023-01-15T04:53:45;99388.83;;;3.24;79.25
70916;BME280;58557;50.982;-3.222;2023-01-15T04:56:10;99385.12;;;3.16;78.89
70916;BME280;58557;50.982;-3.222;2023-01-15T04:58:36;99380.12;;;3.06;79.61
70916;BME280;58557;50.982;-3.222;2023-01-15T05:01:01;99369.69;;;2.48;81.28
70916;BME280;58557;50.982;-3.222;2023-01-15T05:03:26;99362.06;;;3.10;79.88
70916;BME280;58557;50.982;-3.222;2023-01-15T05:05:51;99362.70;;;3.32;77.71
70916;BME280;58557;50.982;-3.222;2023-01-15T05:08:16;99359.36;;;2.98;79.62
70916;BME280;58557;50.982;-3.222;2023-01-15T05:10:41;99365.25;;;2.75;80.35
70916;BME280;58557;50.982;-3.222;2023-01-15T05:13:07;99360.23;;;3.22;78.41
70916;BME280;58557;50.982;-3.222;2023-01-15T05:15:32;99368.74;;;3.07;78.42
70916;BME280;58557;50.982;-3.222;2023-01-15T05:17:58;99372.05;;;3.43;77.80
70916;BME280;58557;50.982;-3.222;2023-01-15T05:20:23;99375.13;;;3.17;78.43
70916;BME280;58557;50.982;-3.222;2023-01-15T05:22:48;99385.42;;;3.23;78.52
70916;BME280;58557;50.982;-3.222;2023-01-15T05:25:13;99387.51;;;3.08;78.73
70916;BME280;58557;50.982;-3.222;2023-01-15T05:27:39;99381.38;;;2.97;79.91
70916;BME280;58557;50.982;-3.222;2023-01-15T05:30:05;99376.36;;;2.54;80.31
70916;BME280;58557;50.982;-3.222;2023-01-15T05:32:30;99382.59;;;2.41;80.58
70916;BME280;58557;50.982;-3.222;2023-01-15T05:34:54;99385.18;;;4.02;77.91
70916;BME280;58557;50.982;-3.222;2023-01-15T05:37:20;99384.71;;;3.45;77.49
70916;BME280;58557;50.982;-3.222;2023-01-15T05:39:45;99384.95;;;3.80;76.95
70916;BME280;58557;50.982;-3.222;2023-01-15T05:42:10;99375.13;;;3.92;76.07
70916;BME280;58557;50.982;-3.222;2023-01-15T05:44:35;99377.32;;;4.69;73.46
70916;BME280;58557;50.982;-3.222;2023-01-15T05:47:01;99375.01;;;4.35;74.56
70916;BME280;58557;50.982;-3.222;2023-01-15T05:49:26;99378.53;;;5.08;70.83
70916;BME280;58557;50.982;-3.222;2023-01-15T05:51:52;99380.14;;;4.95;72.18
70916;BME280;58557;50.982;-3.222;2023-01-15T05:54:19;99376.92;;;3.57;76.86
70916;BME280;58557;50.982;-3.222;2023-01-15T05:56:41;99367.99;;;3.21;77.92
70916;BME280;58557;50.982;-3.222;2023-01-15T05:59:07;99362.68;;;3.22;78.86
70916;BME280;58557;50.982;-3.222;2023-01-15T06:01:32;99363.05;;;3.80;77.72
70916;BME280;58557;50.982;-3.222;2023-01-15T06:03:57;99364.02;;;4.03;76.56
70916;BME280;58557;50.982;-3.222;2023-01-15T06:06:23;99366.62;;;4.04;75.17
70916;BME280;58557;50.982;-3.222;2023-01-15T06:08:48;99359.47;;;4.32;74.13
70916;BME280;58557;50.982;-3.222;2023-01-15T06:11:13;99355.59;;;4.65;73.45
70916;BME280;58557;50.982;-3.222;2023-01-15T06:13:39;99352.58;;;4.39;73.14
70916;BME280;58557;50.982;-3.222;2023-01-15T06:16:04;99354.00;;;4.17;73.97
70916;BME280;58557;50.982;-3.222;2023-01-15T06:18:29;99349.69;;;4.66;71.94
70916;BME280;58557;50.982;-3.222;2023-01-15T06:20:55;99365.22;;;5.20;71.83
70916;BME280;58557;50.982;-3.222;2023-01-15T06:23:20;99369.97;;;3.81;76.15
70916;BME280;58557;50.982;-3.222;2023-01-15T06:25:45;99367.02;;;2.87;79.83
70916;BME280;58557;50.982;-3.222;2023-01-15T06:28:10;99374.06;;;3.39;78.34
70916;BME280;58557;50.982;-3.222;2023-01-15T06:30:37;99374.60;;;2.73;80.82
70916;BME280;58557;50.982;-3.222;2023-01-15T06:33:01;99352.87;;;3.64;79.39
70916;BME280;58557;50.982;-3.222;2023-01-15T06:35:26;99358.83;;;3.54;77.64
70916;BME280;58557;50.982;-3.222;2023-01-15T06:37:52;99355.69;;;4.14;77.06
70916;BME280;58557;50.982;-3.222;2023-01-15T06:40:17;99352.02;;;3.32;78.75
70916;BME280;58557;50.982;-3.222;2023-01-15T06:42:42;99356.63;;;3.66;76.14
70916;BME280;58557;50.982;-3.222;2023-01-15T06:45:09;99358.66;;;3.02;78.99
70916;BME280;58557;50.982;-3.222;2023-01-15T06:47:32;99364.14;;;3.02;80.88
70916;BME280;58557;50.982;-3.222;2023-01-15T06:49:57;99372.02;;;3.49;79.57
70916;BME280;58557;50.982;-3.222;2023-01-15T06:52:23;99361.98;;;3.19;80.61
70916;BME280;58557;50.982;-3.222;2023-01-15T06:54:47;99367.98;;;3.85;78.87
70916;BME280;58557;50.982;-3.222;2023-01-15T06:57:13;99360.74;;;3.37;79.27
70916;BME280;58557;50.982;-3.222;2023-01-15T06:59:37;99348.21;;;4.29;75.88
70916;BME280;58557;50.982;-3.222;2023-01-15T07:02:03;99356.69;;;3.38;78.69
70916;BME280;58557;50.982;-3.222;2023-01-15T07:04:28;99367.10;;;3.44;79.25
70916;BME280;58557;50.982;-3.222;2023-01-15T07:06:53;99370.96;;;3.51;79.79
70916;BME280;58557;50.982;-3.222;2023-01-15T07:09:18;99366.70;;;2.38;81.93
70916;BME280;58557;50.982;-3.222;2023-01-15T07:11:44;99373.21;;;3.67;78.61
70916;BME280;58557;50.982;-3.222;2023-01-15T07:14:09;99377.25;;;3.60;79.00
70916;BME280;58557;50.982;-3.222;2023-01-15T07:16:35;99383.86;;;4.04;78.18
70916;BME280;58557;50.982;-3.222;2023-01-15T07:18:59;99374.34;;;4.24;75.54
70916;BME280;58557;50.982;-3.222;2023-01-15T07:21:24;99374.77;;;4.81;73.74
70916;BME280;58557;50.982;-3.222;2023-01-15T07:23:49;99371.39;;;3.95;73.74
70916;BME280;58557;50.982;-3.222;2023-01-15T07:26:15;99364.11;;;4.38;74.90
70916;BME280;58557;50.982;-3.222;2023-01-15T07:28:40;99367.78;;;3.51;78.39
70916;BME280;58557;50.982;-3.222;2023-01-15T07:31:05;99362.66;;;4.03;75.36
70916;BME280;58557;50.982;-3.222;2023-01-15T07:33:31;99354.81;;;3.67;75.05
70916;BME280;58557;50.982;-3.222;2023-01-15T07:35:57;99359.86;;;4.07;75.73
70916;BME280;58557;50.982;-3.222;2023-01-15T07:38:22;99375.25;;;3.95;76.17
70916;BME280;58557;50.982;-3.222;2023-01-15T07:40:47;99371.00;;;4.53;74.82
70916;BME280;58557;50.982;-3.222;2023-01-15T07:43:12;99369.72;;;4.61;75.13
70916;BME280;58557;50.982;-3.222;2023-01-15T07:45:38;99367.99;;;5.13;72.56
70916;BME280;58557;50.982;-3.222;2023-01-15T07:48:07;99359.35;;;4.70;71.52
70916;BME280;58557;50.982;-3.222;2023-01-15T07:50:28;99355.40;;;5.46;71.03
70916;BME280;58557;50.982;-3.222;2023-01-15T07:52:53;99358.98;;;4.54;72.21
70916;BME280;58557;50.982;-3.222;2023-01-15T07:55:19;99356.90;;;4.20;73.93
70916;BME280;58557;50.982;-3.222;2023-01-15T07:57:44;99349.25;;;4.29;74.24
70916;BME280;58557;50.982;-3.222;2023-01-15T08:00:12;99347.13;;;4.46;74.25
70916;BME280;58557;50.982;-3.222;2023-01-15T08:02:36;99348.61;;;4.28;73.40
70916;BME280;58557;50.982;-3.222;2023-01-15T08:05:01;99350.57;;;5.13;71.34
70916;BME280;58557;50.982;-3.222;2023-01-15T08:07:26;99358.07;;;4.44;72.76
70916;BME280;58557;50.982;-3.222;2023-01-15T08:09:51;99353.83;;;4.47;72.77
70916;BME280;58557;50.982;-3.222;2023-01-15T08:12:16;99362.65;;;5.39;71.00
70916;BME280;58557;50.982;-3.222;2023-01-15T08:14:42;99359.97;;;4.42;72.29
70916;BME280;58557;50.982;-3.222;2023-01-15T08:17:07;99363.35;;;4.89;70.88
70916;BME280;58557;50.982;-3.222;2023-01-15T08:19:32;99364.74;;;4.89;71.67
70916;BME280;58557;50.982;-3.222;2023-01-15T08:21:58;99362.59;;;5.34;70.35
70916;BME280;58557;50.982;-3.222;2023-01-15T08:24:23;99365.63;;;4.37;71.38
70916;BME280;58557;50.982;-3.222;2023-01-15T08:26:48;99365.53;;;5.43;71.17
70916;BME280;58557;50.982;-3.222;2023-01-15T08:29:13;99367.66;;;4.78;72.22
70916;BME280;58557;50.982;-3.222;2023-01-15T08:31:38;99367.39;;;4.98;69.88
70916;BME280;58557;50.982;-3.222;2023-01-15T08:34:03;99368.90;;;5.31;70.62
70916;BME280;58557;50.982;-3.222;2023-01-15T08:36:28;99364.05;;;4.95;69.72
70916;BME280;58557;50.982;-3.222;2023-01-15T08:38:54;99362.61;;;5.45;68.59
70916;BME280;58557;50.982;-3.222;2023-01-15T08:41:19;99361.83;;;5.91;67.38
70916;BME280;58557;50.982;-3.222;2023-01-15T08:43:44;99359.56;;;5.47;68.35
70916;BME280;58557;50.982;-3.222;2023-01-15T08:46:09;99360.73;;;5.18;68.96
70916;BME280;58557;50.982;-3.222;2023-01-15T08:48:34;99364.46;;;5.81;67.18
70916;BME280;58557;50.982;-3.222;2023-01-15T08:51:03;99361.87;;;6.26;66.61
70916;BME280;58557;50.982;-3.222;2023-01-15T08:53:24;99359.36;;;6.18;65.78
70916;BME280;58557;50.982;-3.222;2023-01-15T08:55:50;99362.15;;;5.26;67.60
70916;BME280;58557;50.982;-3.222;2023-01-15T08:58:16;99363.30;;;4.85;68.50
70916;BME280;58557;50.982;-3.222;2023-01-15T09:00:41;99366.80;;;5.51;66.61
70916;BME280;58557;50.982;-3.222;2023-01-15T09:03:05;99367.09;;;5.65;66.60
70916;BME280;58557;50.982;-3.222;2023-01-15T09:05:31;99373.31;;;5.06;68.86
70916;BME280;58557;50.982;-3.222;2023-01-15T09:07:57;99366.86;;;5.08;67.91
70916;BME280;58557;50.982;-3.222;2023-01-15T09:10:22;99373.05;;;5.10;67.87
70916;BME280;58557;50.982;-3.222;2023-01-15T09:12:47;99369.68;;;5.25;67.05
70916;BME280;58557;50.982;-3.222;2023-01-15T09:15:12;99375.62;;;5.08;67.69
70916;BME280;58557;50.982;-3.222;2023-01-15T09:17:38;99376.19;;;4.99;67.94
70916;BME280;58557;50.982;-3.222;2023-01-15T09:20:03;99369.59;;;4.74;68.35
70916;BME280;58557;50.982;-3.222;2023-01-15T09:22:28;99374.28;;;4.73;67.78
70916;BME280;58557;50.982;-3.222;2023-01-15T09:24:53;99373.71;;;4.93;67.87
70916;BME280;58557;50.982;-3.222;2023-01-15T09:27:18;99376.46;;;5.49;66.62
70916;BME280;58557;50.982;-3.222;2023-01-15T09:29:44;99376.70;;;4.74;68.63
70916;BME280;58557;50.982;-3.222;2023-01-15T09:32:09;99381.49;;;5.48;65.97
70916;BME280;58557;50.982;-3.222;2023-01-15T09:34:35;99383.45;;;5.16;65.78
70916;BME280;58557;50.982;-3.222;2023-01-15T09:37:00;99383.44;;;5.55;65.72
70916;BME280;58557;50.982;-3.222;2023-01-15T09:39:25;99376.50;;;6.49;63.16
70916;BME280;58557;50.982;-3.222;2023-01-15T09:41:59;99374.48;;;5.63;65.17
70916;BME280;58557;50.982;-3.222;2023-01-15T09:44:24;99374.55;;;5.33;64.94
70916;BME280;58557;50.982;-3.222;2023-01-15T09:46:48;99380.39;;;5.76;64.04
70916;BME280;58557;50.982;-3.222;2023-01-15T09:49:13;99373.01;;;5.58;63.82
70916;BME280;58557;50.982;-3.222;2023-01-15T09:51:35;99375.85;;;6.36;62.32
70916;BME280;58557;50.982;-3.222;2023-01-15T09:56:24;99375.91;;;6.71;61.96
70916;BME280;58557;50.982;-3.222;2023-01-15T09:58:47;99382.39;;;6.57;61.91
70916;BME280;58557;50.982;-3.222;2023-01-15T10:01:15;99390.48;;;7.15;60.30
70916;BME280;58557;50.982;-3.222;2023-01-15T10:03:41;99402.99;;;7.19;60.72
70916;BME280;58557;50.982;-3.222;2023-01-15T10:06:10;99398.14;;;6.82;60.67
70916;BME280;58557;50.982;-3.222;2023-01-15T10:08:32;99404.60;;;6.99;60.05
70916;BME280;58557;50.982;-3.222;2023-01-15T10:10:56;99405.02;;;7.30;60.25
70916;BME280;58557;50.982;-3.222;2023-01-15T10:13:26;99414.23;;;7.25;59.13
70916;BME280;58557;50.982;-3.222;2023-01-15T10:15:46;99414.33;;;6.95;60.36
70916;BME280;58557;50.982;-3.222;2023-01-15T10:18:14;99418.89;;;6.97;60.70
70916;BME280;58557;50.982;-3.222;2023-01-15T10:20:48;99418.38;;;8.00;58.79
70916;BME280;58557;50.982;-3.222;2023-01-15T10:23:13;99415.47;;;7.55;58.93
70916;BME280;58557;50.982;-3.222;2023-01-15T10:25:32;99417.00;;;6.22;61.54
70916;BME280;58557;50.982;-3.222;2023-01-15T10:27:52;99418.07;;;5.93;62.81
70916;BME280;58557;50.982;-3.222;2023-01-15T10:30:24;99426.12;;;5.73;65.35
70916;BME280;58557;50.982;-3.222;2023-01-15T10:32:43;99437.67;;;4.60;70.16
70916;BME280;58557;50.982;-3.222;2023-01-15T10:35:20;99433.36;;;3.79;72.22
70916;BME280;58557;50.982;-3.222;2023-01-15T10:37:38;99441.30;;;4.76;71.51
70916;BME280;58557;50.982;-3.222;2023-01-15T10:42:34;99446.23;;;5.56;70.48
70916;BME280;58557;50.982;-3.222;2023-01-15T10:44:51;99452.08;;;5.49;69.50
70916;BME280;58557;50.982;-3.222;2023-01-15T10:47:16;99458.02;;;6.55;67.92
70916;BME280;58557;50.982;-3.222;2023-01-15T10:49:40;99456.51;;;6.25;67.54
70916;BME280;58557;50.982;-3.222;2023-01-15T10:52:17;99455.26;;;5.80;66.68
70916;BME280;58557;50.982;-3.222;2023-01-15T10:54:32;99457.52;;;5.70;66.84
70916;BME280;58557;50.982;-3.222;2023-01-15T10:56:59;99458.21;;;5.53;66.64
70916;BME280;58557;50.982;-3.222;2023-01-15T10:59:21;99448.35;;;6.04;67.35
70916;BME280;58557;50.982;-3.222;2023-01-15T11:01:44;99445.25;;;5.91;67.21
70916;BME280;58557;50.982;-3.222;2023-01-15T11:04:09;99438.08;;;7.98;62.28
70916;BME280;58557;50.982;-3.222;2023-01-15T11:06:34;99431.65;;;7.20;64.02
70916;BME280;58557;50.982;-3.222;2023-01-15T11:08:59;99428.72;;;6.23;63.75
70916;BME280;58557;50.982;-3.222;2023-01-15T11:11:30;99429.31;;;5.06;67.54
70916;BME280;58557;50.982;-3.222;2023-01-15T11:13:54;99422.78;;;6.12;68.63
70916;BME280;58557;50.982;-3.222;2023-01-15T11:16:16;99418.90;;;5.95;66.70
70916;BME280;58557;50.982;-3.222;2023-01-15T11:18:41;99416.64;;;5.31;67.79
70916;BME280;58557;50.982;-3.222;2023-01-15T11:21:10;99419.53;;;6.01;70.82
70916;BME280;58557;50.982;-3.222;2023-01-15T11:23:34;99425.39;;;5.56;71.30
70916;BME280;58557;50.982;-3.222;2023-01-15T11:25:56;99425.14;;;4.30;74.02
70916;BME280;58557;50.982;-3.222;2023-01-15T11:28:31;99423.40;;;3.84;77.97
70916;BME280;58557;50.982;-3.222;2023-01-15T11:30:52;99423.14;;;4.02;78.49
70916;BME280;58557;50.982;-3.222;2023-01-15T11:33:20;99420.21;;;2.90;80.84
70916;BME280;58557;50.982;-3.222;2023-01-15T11:35:35;99426.27;;;3.98;78.09
70916;BME280;58557;50.982;-3.222;2023-01-15T11:38:02;99429.39;;;3.24;80.83
70916;BME280;58557;50.982;-3.222;2023-01-15T11:40:25;99423.82;;;2.92;80.07
70916;BME280;58557;50.982;-3.222;2023-01-15T11:42:51;99424.68;;;2.82;81.56
70916;BME280;58557;50.982;-3.222;2023-01-15T11:45:17;99418.14;;;3.45;78.15
70916;BME280;58557;50.982;-3.222;2023-01-15T11:47:50;99410.10;;;4.52;73.82
70916;BME280;58557;50.982;-3.222;2023-01-15T11:50:15;99403.26;;;5.26;72.75
70916;BME280;58557;50.982;-3.222;2023-01-15T11:52:31;99401.83;;;3.59;74.75
70916;BME280;58557;50.982;-3.222;2023-01-15T11:54:56;99390.43;;;5.61;72.48
70916;BME280;58557;50.982;-3.222;2023-01-15T11:57:25;99387.18;;;5.03;73.01
70916;BME280;58557;50.982;-3.222;2023-01-15T11:59:47;99392.22;;;4.48;73.88
70916;BME280;58557;50.982;-3.222;2023-01-15T12:02:19;99396.17;;;4.39;76.08
70916;BME280;58557;50.982;-3.222;2023-01-15T12:04:48;99395.37;;;4.02;78.55
70916;BME280;58557;50.982;-3.222;2023-01-15T12:07:04;99389.30;;;4.07;78.50
70916;BME280;58557;50.982;-3.222;2023-01-15T12:09:37;99391.30;;;4.13;78.37
70916;BME280;58557;50.982;-3.222;2023-01-15T12:12:02;99391.19;;;4.64;79.41
70916;BME280;58557;50.982;-3.222;2023-01-15T12:14:27;99395.17;;;5.34;76.92
70916;BME280;58557;50.982;-3.222;2023-01-15T12:16:47;99396.07;;;3.83;81.92
70916;BME280;58557;50.982;-3.222;2023-01-15T12:19:12;99399.94;;;3.45;84.00
70916;BME280;58557;50.982;-3.222;2023-01-15T12:21:45;99394.99;;;3.65;82.11
70916;BME280;58557;50.982;-3.222;2023-01-15T12:24:12;99398.78;;;3.75;82.50
70916;BME280;58557;50.982;-3.222;2023-01-15T12:26:25;99398.77;;;4.56;80.25
70916;BME280;58557;50.982;-3.222;2023-01-15T12:28:53;99398.31;;;4.70;78.90
70916;BME280;58557;50.982;-3.222;2023-01-15T12:31:16;99400.01;;;4.24;77.31
70916;BME280;58557;50.982;-3.222;2023-01-15T12:33:44;99395.07;;;5.58;74.86
70916;BME280;58557;50.982;-3.222;2023-01-15T12:36:07;99397.98;;;5.59;74.85
70916;BME280;58557;50.982;-3.222;2023-01-15T12:38:43;99402.23;;;5.81;74.15
70916;BME280;58557;50.982;-3.222;2023-01-15T12:40:56;99402.56;;;5.18;74.36
70916;BME280;58557;50.982;-3.222;2023-01-15T12:43:23;99402.54;;;5.06;75.82
70916;BME280;58557;50.982;-3.222;2023-01-15T12:45:47;99399.49;;;6.60;72.82
70916;BME280;58557;50.982;-3.222;2023-01-15T12:48:13;99398.64;;;5.97;72.03
70916;BME280;58557;50.982;-3.222;2023-01-15T12:50:41;99405.70;;;4.48;77.90
70916;BME280;58557;50.982;-3.222;2023-01-15T12:53:05;99404.54;;;4.25;79.00
70916;BME280;58557;50.982;-3.222;2023-01-15T12:55:25;99409.51;;;4.64;81.25